<?xml version="1.0" encoding="UTF-8" standalone="no" ?>
<gpx xmlns="http://www.topografix.com/GPX/1/1" xmlns:xsi="http://www.w3.org/2001/XMLSchema-instance" xsi:schemaLocation="http://www.topografix.com/GPX/1/1 http://www.topografix.com/GPX/1/1/gpx.xsd" version="1.1" creator="VisuGPX - https://www.visugpx.com">
  <metadata>
    <name>luzech 6 descentes</name>
    <desc><![CDATA[parcours typé enduro avec de belles descentes]]></desc>
  </metadata>
  <trk>
    <name><![CDATA[2014-04-01-08-18-57]]></name>
    <trkseg>
      <trkpt lat="44.46128" lon="1.29294">
        <ele>102.119</ele>
        <time>2014-04-01T12:35:04Z</time>
      </trkpt>
      <trkpt lat="44.46124" lon="1.29275">
        <ele>101.529</ele>
        <time>2014-04-01T12:35:08Z</time>
      </trkpt>
      <trkpt lat="44.46122" lon="1.29262">
        <ele>101.048</ele>
        <time>2014-04-01T12:35:10Z</time>
      </trkpt>
      <trkpt lat="44.46117" lon="1.29229">
        <ele>101.739</ele>
        <time>2014-04-01T12:35:15Z</time>
      </trkpt>
      <trkpt lat="44.46116" lon="1.29216">
        <ele>100.939</ele>
        <time>2014-04-01T12:35:17Z</time>
      </trkpt>
      <trkpt lat="44.46114" lon="1.29201">
        <ele>100.068</ele>
        <time>2014-04-01T12:35:19Z</time>
      </trkpt>
      <trkpt lat="44.46107" lon="1.29173">
        <ele>98.909</ele>
        <time>2014-04-01T12:35:23Z</time>
      </trkpt>
      <trkpt lat="44.461" lon="1.29137">
        <ele>100.309</ele>
        <time>2014-04-01T12:35:29Z</time>
      </trkpt>
      <trkpt lat="44.46099" lon="1.29131">
        <ele>100.308</ele>
        <time>2014-04-01T12:35:30Z</time>
      </trkpt>
      <trkpt lat="44.46094" lon="1.29096">
        <ele>98.838</ele>
        <time>2014-04-01T12:35:35Z</time>
      </trkpt>
      <trkpt lat="44.46092" lon="1.29077">
        <ele>99.628</ele>
        <time>2014-04-01T12:35:39Z</time>
      </trkpt>
      <trkpt lat="44.46092" lon="1.29065">
        <ele>100.599</ele>
        <time>2014-04-01T12:35:42Z</time>
      </trkpt>
      <trkpt lat="44.46091" lon="1.2904">
        <ele>99.827</ele>
        <time>2014-04-01T12:35:48Z</time>
      </trkpt>
      <trkpt lat="44.46094" lon="1.29022">
        <ele>99.408</ele>
        <time>2014-04-01T12:35:51Z</time>
      </trkpt>
      <trkpt lat="44.46097" lon="1.28992">
        <ele>99.097</ele>
        <time>2014-04-01T12:35:56Z</time>
      </trkpt>
      <trkpt lat="44.46098" lon="1.28985">
        <ele>99.517</ele>
        <time>2014-04-01T12:35:57Z</time>
      </trkpt>
      <trkpt lat="44.461" lon="1.28973">
        <ele>100.068</ele>
        <time>2014-04-01T12:35:59Z</time>
      </trkpt>
      <trkpt lat="44.461" lon="1.28946">
        <ele>98.347</ele>
        <time>2014-04-01T12:36:03Z</time>
      </trkpt>
      <trkpt lat="44.46097" lon="1.28929">
        <ele>94.536</ele>
        <time>2014-04-01T12:36:06Z</time>
      </trkpt>
      <trkpt lat="44.46084" lon="1.28921">
        <ele>93.397</ele>
        <time>2014-04-01T12:36:11Z</time>
      </trkpt>
      <trkpt lat="44.46082" lon="1.2892">
        <ele>93.656</ele>
        <time>2014-04-01T12:36:12Z</time>
      </trkpt>
      <trkpt lat="44.46075" lon="1.28919">
        <ele>94.398</ele>
        <time>2014-04-01T12:36:17Z</time>
      </trkpt>
    </trkseg>
  </trk>
</gpx>